Time;durP1;ratioP1;P1;durP2;ratioP2;P2;SDS_P1;SDS_P2;PMS_P1;PMS_P2;Temp;Humidity;BMP_temperature;BMP_pressure;BME280_temperature;BME280_humidity;BME280_pressure;Samples;Min_cycle;Max_cycle;Signal;HPM_P1;HPM_P2
2021/09/05 00:00:33;;;;;;;1.33;0.75;;;;;;;30.65;20.60;98647.56;5069293;28;20043;-80
2021/09/05 00:02:59;;;;;;;0.85;0.60;;;;;;;30.55;20.35;98650.84;5069215;28;20043;-79
2021/09/05 00:05:25;;;;;;;1.95;0.68;;;;;;;30.51;20.23;98650.97;5062901;28;20051;-78
2021/09/05 00:07:51;;;;;;;1.33;0.70;;;;;;;30.37;20.50;98651.53;5068530;28;20093;-78
2021/09/05 00:10:17;;;;;;;2.25;0.88;;;;;;;30.19;20.68;98650.59;5046166;28;20036;-78
2021/09/05 00:12:43;;;;;;;1.85;0.90;;;;;;;30.31;20.49;98649.72;5064059;28;20087;-78
2021/09/05 00:15:11;;;;;;;1.60;0.73;;;;;;;30.38;20.37;98657.97;5068459;28;20028;-78
2021/09/05 00:17:38;;;;;;;1.35;0.90;;;;;;;30.29;20.50;98652.22;5059495;28;20036;-78
2021/09/05 00:20:05;;;;;;;0.95;0.60;;;;;;;30.31;20.49;98659.03;5061031;28;20044;-78
2021/09/05 00:22:31;;;;;;;1.73;0.73;;;;;;;30.24;20.53;98655.66;5060917;28;20044;-78
2021/09/05 00:24:58;;;;;;;2.40;0.60;;;;;;;30.31;20.50;98652.56;5067204;28;20020;-78
2021/09/05 00:27:24;;;;;;;1.25;0.88;;;;;;;30.14;21.11;98656.84;5062521;28;20094;-78
2021/09/05 00:29:50;;;;;;;0.88;0.60;;;;;;;29.94;21.02;98657.97;5066662;28;20029;-78
2021/09/05 00:32:16;;;;;;;0.57;0.50;;;;;;;29.96;21.16;98657.53;5064442;28;20036;-78
2021/09/05 00:34:42;;;;;;;2.50;0.82;;;;;;;29.95;20.88;98651.06;5056723;28;20037;-79
2021/09/05 00:37:08;;;;;;;0.80;0.60;;;;;;;29.91;20.83;98649.63;5068294;28;20063;-78
2021/09/05 00:39:34;;;;;;;1.58;0.73;;;;;;;29.88;21.13;98648.50;5070604;28;20033;-79
2021/09/05 00:42:00;;;;;;;0.88;0.85;;;;;;;29.91;20.94;98656.06;5054044;28;20127;-78
2021/09/05 00:44:27;;;;;;;1.35;0.80;;;;;;;29.92;20.76;98651.19;5069784;28;20496;-78
2021/09/05 00:46:53;;;;;;;1.10;0.73;;;;;;;29.93;20.96;98655.59;5065002;28;20045;-78
2021/09/05 00:49:19;;;;;;;1.05;0.70;;;;;;;29.85;20.84;98657.88;5058988;28;20033;-78
2021/09/05 00:51:46;;;;;;;1.50;0.75;;;;;;;29.85;21.14;98652.22;5065030;28;20040;-78
2021/09/05 00:54:14;;;;;;;2.97;0.70;;;;;;;29.86;21.21;98658.69;5063445;28;20029;-78
2021/09/05 00:56:43;;;;;;;2.10;1.05;;;;;;;29.68;20.94;98662.13;5069761;28;20024;-78
2021/09/05 00:59:15;;;;;;;1.58;0.90;;;;;;;29.73;20.92;98661.56;5063831;28;20028;-78
2021/09/05 01:01:41;;;;;;;1.30;0.80;;;;;;;29.80;21.13;98660.53;5068150;28;20037;-78
2021/09/05 01:04:07;;;;;;;0.80;0.70;;;;;;;29.95;20.97;98662.38;5070482;28;20028;-78
2021/09/05 01:06:35;;;;;;;2.30;0.82;;;;;;;29.77;20.94;98664.28;5069156;28;20481;-78
2021/09/05 01:09:02;;;;;;;1.20;0.70;;;;;;;29.28;21.64;98659.09;5070727;28;20044;-78
2021/09/05 01:11:32;;;;;;;1.13;0.88;;;;;;;28.77;22.11;98654.72;5065176;28;20516;-78
2021/09/05 01:13:58;;;;;;;1.65;0.93;;;;;;;28.05;23.27;98662.94;5066912;28;20029;-78
2021/09/05 01:16:26;;;;;;;3.00;0.95;;;;;;;27.86;23.38;98661.84;5057486;28;20083;-78
2021/09/05 01:18:52;;;;;;;1.08;0.85;;;;;;;28.32;22.87;98656.88;5066183;28;20044;-78
2021/09/05 01:21:19;;;;;;;1.02;0.65;;;;;;;28.85;22.07;98661.69;5068694;28;20052;-78
2021/09/05 01:23:45;;;;;;;0.93;0.73;;;;;;;28.93;21.92;98665.09;5066133;28;20456;-78
2021/09/05 01:26:12;;;;;;;1.75;0.95;;;;;;;28.87;21.92;98658.44;5070535;28;20499;-80
2021/09/05 01:28:39;;;;;;;1.55;1.00;;;;;;;28.81;22.10;98661.03;5072451;28;20040;-80
2021/09/05 01:31:06;;;;;;;1.30;0.85;;;;;;;28.99;21.73;98668.91;5060012;28;20029;-80
2021/09/05 01:33:32;;;;;;;2.30;0.90;;;;;;;29.14;21.84;98668.03;5073342;28;20029;-80
2021/09/05 01:35:58;;;;;;;1.73;0.60;;;;;;;29.13;21.74;98662.81;5071368;28;20377;-80
2021/09/05 01:38:24;;;;;;;1.55;0.90;;;;;;;29.21;21.92;98676.31;5074309;28;20041;-80
2021/09/05 01:40:50;;;;;;;1.08;0.80;;;;;;;29.32;21.63;98679.56;5071805;28;20109;-80
2021/09/05 01:43:16;;;;;;;1.02;0.75;;;;;;;29.36;21.58;98679.41;5052072;28;20405;-80
2021/09/05 01:45:42;;;;;;;1.42;0.70;;;;;;;29.44;21.78;98689.25;5059038;28;20399;-80
2021/09/05 01:48:08;;;;;;;1.85;0.75;;;;;;;29.26;21.46;98684.22;5074873;28;20506;-80
2021/09/05 01:50:34;;;;;;;2.65;0.63;;;;;;;28.95;22.15;98682.38;5070124;28;20157;-80
2021/09/05 01:53:00;;;;;;;2.72;0.80;;;;;;;28.98;21.76;98687.94;5063798;28;20029;-80
2021/09/05 01:55:26;;;;;;;1.10;0.60;;;;;;;28.98;21.75;98687.94;5072525;28;20093;-80
2021/09/05 01:57:52;;;;;;;1.00;0.82;;;;;;;29.06;21.52;98686.44;5072847;28;20024;-80
2021/09/05 02:00:18;;;;;;;0.60;0.50;;;;;;;28.80;21.75;98684.88;5060662;28;20192;-80
2021/09/05 02:02:44;;;;;;;1.35;0.90;;;;;;;28.97;21.50;98679.91;5066090;28;20762;-80
2021/09/05 02:05:11;;;;;;;4.25;0.80;;;;;;;29.01;21.60;98691.91;5064380;28;20058;-80
2021/09/05 02:07:37;;;;;;;1.38;0.75;;;;;;;28.94;21.56;98687.25;5071547;28;20043;-80
2021/09/05 02:10:03;;;;;;;0.90;0.55;;;;;;;28.96;21.58;98686.81;5067671;28;20036;-80
2021/09/05 02:12:29;;;;;;;1.05;0.85;;;;;;;28.42;22.14;98698.16;5071967;28;20033;-80
2021/09/05 02:14:55;;;;;;;2.15;0.85;;;;;;;28.21;22.57;98699.56;5071632;28;20048;-80
2021/09/05 02:17:21;;;;;;;3.53;1.38;;;;;;;25.91;25.43;98701.41;5064712;28;20028;-80
2021/09/05 02:19:48;;;;;;;1.95;0.82;;;;;;;27.02;24.45;98697.88;5060507;28;20060;-79
2021/09/05 02:22:14;;;;;;;2.00;1.02;;;;;;;26.06;25.63;98705.56;5063005;28;20104;-80
2021/09/05 02:24:40;;;;;;;1.92;1.08;;;;;;;26.41;25.13;98709.69;5066441;28;20055;-80
2021/09/05 02:27:06;;;;;;;1.92;1.35;;;;;;;25.00;27.42;98709.44;5058645;28;20472;-80
2021/09/05 02:29:32;;;;;;;3.33;1.40;;;;;;;23.89;29.38;98718.91;5051947;28;20037;-80
2021/09/05 02:31:58;;;;;;;2.83;1.75;;;;;;;24.69;27.87;98717.09;5046828;28;20484;-80
2021/09/05 02:34:24;;;;;;;3.00;1.50;;;;;;;25.08;27.04;98710.91;5071184;28;20103;-80
2021/09/05 02:36:50;;;;;;;2.67;1.30;;;;;;;26.76;24.94;98710.94;5062522;28;20039;-80
2021/09/05 02:39:16;;;;;;;1.13;0.90;;;;;;;27.55;23.68;98705.81;5058272;28;20025;-80
2021/09/05 02:41:42;;;;;;;2.15;1.40;;;;;;;28.24;22.61;98709.97;5037736;28;20067;-80
2021/09/05 02:44:08;;;;;;;2.30;1.20;;;;;;;28.30;22.13;98711.00;5050099;28;20416;-80
2021/09/05 02:46:35;;;;;;;2.22;1.48;;;;;;;28.15;22.71;98709.81;5050230;28;20040;-79
2021/09/05 02:49:01;;;;;;;2.33;1.02;;;;;;;28.31;22.40;98711.81;5065020;28;20029;-80
2021/09/05 02:51:27;;;;;;;1.75;1.23;;;;;;;28.32;22.24;98707.72;5063843;28;20115;-80
2021/09/05 02:53:53;;;;;;;1.75;1.02;;;;;;;28.41;22.17;98703.00;5071285;28;20481;-80
2021/09/05 02:56:19;;;;;;;0.98;0.88;;;;;;;28.50;21.84;98708.78;5064037;28;20032;-80
2021/09/05 02:58:45;;;;;;;4.45;1.33;;;;;;;28.49;21.96;98712.06;5044021;28;20028;-80
2021/09/05 03:01:12;;;;;;;3.17;0.93;;;;;;;28.57;21.46;98707.78;5068902;28;20032;-80
2021/09/05 03:03:38;;;;;;;2.03;1.10;;;;;;;28.87;21.31;98712.91;5071427;28;20496;-80
2021/09/05 03:06:04;;;;;;;1.77;1.02;;;;;;;29.10;21.00;98712.56;5066135;28;20031;-80
2021/09/05 03:08:30;;;;;;;2.58;1.20;;;;;;;29.11;20.99;98717.00;5075100;28;20037;-80
2021/09/05 03:10:56;;;;;;;1.88;1.00;;;;;;;28.82;21.27;98721.19;5072053;28;20029;-80
2021/09/05 03:13:22;;;;;;;3.28;1.20;;;;;;;28.80;21.06;98721.63;5070568;28;20089;-80
2021/09/05 03:15:48;;;;;;;9.30;1.60;;;;;;;28.64;21.38;98716.06;5071949;28;20035;-80
2021/09/05 03:18:14;;;;;;;1.38;0.82;;;;;;;28.33;21.84;98721.41;5072115;28;20044;-80
2021/09/05 03:20:40;;;;;;;1.50;0.95;;;;;;;28.24;22.28;98717.66;5071677;28;20033;-80
2021/09/05 03:23:06;;;;;;;3.88;1.10;;;;;;;28.36;21.63;98720.50;5072113;28;20037;-80
2021/09/05 03:25:32;;;;;;;1.67;1.23;;;;;;;27.74;22.70;98721.81;5071150;28;21757;-80
2021/09/05 03:27:58;;;;;;;2.58;1.08;;;;;;;27.17;23.29;98724.47;5072396;28;20036;-80
2021/09/05 03:30:24;;;;;;;2.25;1.08;;;;;;;27.52;23.08;98722.81;5072569;28;20029;-80
2021/09/05 03:32:50;;;;;;;2.17;1.30;;;;;;;27.40;23.29;98725.09;5072017;28;20055;-80
2021/09/05 03:35:16;;;;;;;2.63;1.10;;;;;;;27.59;23.01;98722.63;5068517;28;20381;-80
2021/09/05 03:37:42;;;;;;;1.23;0.82;;;;;;;27.54;22.64;98726.00;5072517;28;20045;-80
2021/09/05 03:40:09;;;;;;;2.17;1.40;;;;;;;26.66;23.96;98729.66;5072236;28;20107;-80
2021/09/05 03:42:35;;;;;;;1.95;1.13;;;;;;;25.85;25.18;98736.91;5070213;28;20495;-80
2021/09/05 03:45:01;;;;;;;2.90;1.40;;;;;;;26.32;24.80;98732.00;5073179;28;20029;-80
2021/09/05 03:47:28;;;;;;;1.20;0.93;;;;;;;26.54;24.65;98727.50;5051348;28;20028;-80
2021/09/05 03:49:54;;;;;;;2.08;1.20;;;;;;;26.53;24.50;98728.75;5071382;28;21933;-80
2021/09/05 03:52:21;;;;;;;2.95;1.08;;;;;;;26.63;24.26;98727.69;5071689;28;20033;-80
2021/09/05 03:54:47;;;;;;;3.10;1.23;;;;;;;26.77;24.33;98731.47;5072214;28;20056;-80
2021/09/05 03:57:13;;;;;;;1.50;1.10;;;;;;;26.02;25.28;98738.59;5070568;28;20035;-80
2021/09/05 03:59:39;;;;;;;1.58;1.00;;;;;;;26.38;24.82;98732.28;5071364;28;20511;-79
2021/09/05 04:02:05;;;;;;;3.80;1.08;;;;;;;26.92;24.10;98732.72;5052599;28;20048;-80
2021/09/05 04:04:31;;;;;;;1.83;1.13;;;;;;;26.98;23.64;98745.84;5067052;28;20032;-80
2021/09/05 04:07:00;;;;;;;1.70;1.25;;;;;;;27.03;23.65;98744.53;5073319;28;20028;-80
2021/09/05 04:12:13;;;;;;;1.85;1.10;;;;;;;28.00;22.62;98748.16;5066762;28;20067;-80
2021/09/05 04:14:39;;;;;;;2.92;1.17;;;;;;;28.29;21.67;98739.69;5068730;28;20496;-80
2021/09/05 04:17:06;;;;;;;2.35;0.85;;;;;;;28.31;21.90;98752.13;5071745;28;20115;-80
2021/09/05 04:19:33;;;;;;;2.10;0.98;;;;;;;27.99;22.28;98755.03;5069723;28;20503;-80
2021/09/05 04:21:59;;;;;;;1.92;1.08;;;;;;;28.22;21.91;98754.00;5071070;28;20472;-80
2021/09/05 04:24:25;;;;;;;1.67;0.90;;;;;;;28.18;22.01;98762.59;5069942;28;20504;-80
2021/09/05 04:26:51;;;;;;;1.20;1.10;;;;;;;28.15;22.09;98755.00;5053844;28;20504;-80
2021/09/05 04:29:17;;;;;;;1.40;0.90;;;;;;;28.21;21.83;98763.72;5070785;28;20419;-80
2021/09/05 04:31:44;;;;;;;1.60;1.10;;;;;;;28.15;22.36;98763.47;5053821;28;20028;-80
2021/09/05 04:34:10;;;;;;;1.63;1.02;;;;;;;28.04;22.19;98771.44;5062813;28;20030;-80
2021/09/05 04:36:36;;;;;;;2.25;0.98;;;;;;;28.13;22.24;98765.16;5066470;28;20037;-80
2021/09/05 04:39:02;;;;;;;1.88;1.10;;;;;;;28.15;22.41;98771.94;5072025;28;20042;-80
2021/09/05 04:41:28;;;;;;;1.70;1.10;;;;;;;28.33;22.37;98768.63;5071975;28;20054;-80
2021/09/05 04:43:54;;;;;;;1.75;0.93;;;;;;;28.70;21.99;98774.44;5053343;28;20025;-80
2021/09/05 04:46:20;;;;;;;1.67;0.90;;;;;;;29.14;21.86;98775.50;5071259;28;20088;-80
2021/09/05 04:48:46;;;;;;;1.23;0.80;;;;;;;29.61;21.40;98774.81;5072155;28;20029;-80
2021/09/05 04:51:12;;;;;;;2.50;0.80;;;;;;;29.81;21.29;98778.97;5071607;28;20040;-80
2021/09/05 04:53:38;;;;;;;2.15;1.10;;;;;;;29.88;21.13;98786.44;5071843;28;20078;-80
2021/09/05 04:56:04;;;;;;;1.88;0.98;;;;;;;30.14;20.97;98785.09;5070233;28;20033;-80
2021/09/05 04:58:30;;;;;;;2.58;1.25;;;;;;;30.02;21.46;98791.59;5054255;28;20039;-80
2021/09/05 05:00:56;;;;;;;1.13;0.90;;;;;;;30.08;21.55;98798.28;5071817;28;20024;-80
2021/09/05 05:03:22;;;;;;;2.00;0.98;;;;;;;30.27;21.85;98800.00;5072224;28;20051;-80
2021/09/05 05:05:48;;;;;;;1.20;0.80;;;;;;;30.15;21.74;98800.88;5074976;28;20025;-80
2021/09/05 05:08:15;;;;;;;1.52;0.95;;;;;;;30.03;22.05;98798.88;5076276;28;20047;-80
2021/09/05 05:10:41;;;;;;;1.77;1.00;;;;;;;29.23;23.16;98803.13;5073920;28;20036;-80
2021/09/05 05:13:07;;;;;;;3.10;1.17;;;;;;;29.47;23.21;98806.41;5075952;28;20090;-80
2021/09/05 05:15:33;;;;;;;1.75;1.10;;;;;;;29.50;23.55;98806.28;5067218;28;20467;-81
2021/09/05 05:17:59;;;;;;;1.40;0.85;;;;;;;29.63;23.19;98809.09;5064622;28;20539;-80
2021/09/05 05:20:25;;;;;;;1.70;1.23;;;;;;;29.78;22.84;98818.75;5069483;28;20049;-80
2021/09/05 05:22:51;;;;;;;2.40;1.27;;;;;;;30.19;22.40;98812.84;5067628;28;20043;-80
2021/09/05 05:25:17;;;;;;;2.35;1.15;;;;;;;30.34;22.96;98816.00;5071688;28;20039;-80
2021/09/05 05:27:44;;;;;;;1.75;0.98;;;;;;;30.25;22.51;98816.69;5073789;28;20108;-79
2021/09/05 05:30:10;;;;;;;1.48;0.90;;;;;;;30.38;22.79;98819.50;5068415;28;20033;-79
2021/09/05 05:32:36;;;;;;;2.13;1.23;;;;;;;30.56;22.85;98826.09;5071106;28;20575;-80
2021/09/05 05:35:02;;;;;;;1.52;1.20;;;;;;;30.84;22.67;98818.59;5074275;28;20032;-79
2021/09/05 05:37:28;;;;;;;2.47;1.48;;;;;;;30.69;22.86;98829.66;5068584;28;20041;-81
2021/09/05 05:39:54;;;;;;;3.17;1.67;;;;;;;29.75;24.03;98830.94;5066440;28;20036;-80
2021/09/05 05:42:20;;;;;;;2.20;1.30;;;;;;;29.72;24.61;98837.50;5074090;28;20090;-80
2021/09/05 05:44:46;;;;;;;3.22;1.58;;;;;;;30.25;22.88;98835.72;5074311;28;20036;-80
2021/09/05 05:47:12;;;;;;;1.75;1.17;;;;;;;30.52;23.95;98836.00;5070595;28;20488;-80
2021/09/05 05:49:40;;;;;;;2.53;1.55;;;;;;;30.11;23.04;98841.91;5067825;28;20051;-80
2021/09/05 05:52:07;;;;;;;3.17;1.35;;;;;;;29.37;24.50;98850.75;5068125;28;20040;-81
2021/09/05 05:54:33;;;;;;;1.45;1.35;;;;;;;28.48;25.58;98848.91;5065158;28;20136;-81
2021/09/05 05:56:59;;;;;;;5.20;1.45;;;;;;;28.77;24.62;98841.25;5068530;28;20078;-81
2021/09/05 05:59:25;;;;;;;1.52;1.00;;;;;;;29.73;24.27;98848.41;5045477;28;20020;-81
2021/09/05 06:01:51;;;;;;;1.67;0.90;;;;;;;30.03;23.45;98852.69;5067876;28;20051;-81
2021/09/05 06:04:17;;;;;;;1.67;0.98;;;;;;;30.40;23.54;98848.97;5069077;28;20438;-81
2021/09/05 06:06:43;;;;;;;1.52;1.00;;;;;;;29.72;24.32;98860.16;5069449;28;20028;-82
2021/09/05 06:09:09;;;;;;;1.65;1.10;;;;;;;29.66;24.16;98853.50;5072585;28;20030;-83
2021/09/05 06:11:35;;;;;;;1.88;1.13;;;;;;;30.05;23.90;98859.47;5067859;28;20487;-82
2021/09/05 06:14:01;;;;;;;2.05;1.40;;;;;;;29.72;23.45;98865.81;5062882;28;20020;-82
2021/09/05 06:16:28;;;;;;;1.52;1.00;;;;;;;29.94;24.12;98858.25;5072444;28;20067;-83
2021/09/05 06:18:55;;;;;;;3.45;1.60;;;;;;;29.46;24.77;98859.38;5071722;28;20123;-83
2021/09/05 06:21:21;;;;;;;1.40;1.13;;;;;;;29.79;24.42;98865.63;5069675;28;20028;-83
2021/09/05 06:23:47;;;;;;;1.45;1.10;;;;;;;29.89;24.28;98872.97;5073113;28;20139;-84
2021/09/05 06:26:13;;;;;;;3.38;0.85;;;;;;;30.23;23.51;98867.34;5061661;28;20564;-84
2021/09/05 06:28:39;;;;;;;1.30;0.70;;;;;;;30.15;23.10;98862.38;5051576;28;20024;-81
2021/09/05 06:31:06;;;;;;;1.58;0.93;;;;;;;30.15;23.19;98868.06;5071401;28;20538;-83
2021/09/05 06:33:32;;;;;;;2.67;0.95;;;;;;;30.52;22.98;98872.84;5067061;28;20024;-82
2021/09/05 06:35:58;;;;;;;1.55;0.85;;;;;;;30.90;22.51;98884.06;5072604;28;20033;-83
2021/09/05 06:38:24;;;;;;;1.90;1.02;;;;;;;30.18;23.41;98876.41;5074042;28;20040;-82
2021/09/05 06:40:50;;;;;;;1.13;0.70;;;;;;;30.70;23.66;98885.13;5073493;28;20089;-82
2021/09/05 06:43:16;;;;;;;1.30;1.20;;;;;;;30.97;22.83;98890.22;5072963;28;20064;-83
2021/09/05 06:45:43;;;;;;;2.22;1.08;;;;;;;31.39;22.31;98885.00;5070954;28;20040;-82
2021/09/05 06:48:09;;;;;;;2.05;0.95;;;;;;;31.35;21.71;98885.13;5072134;28;20027;-82
2021/09/05 06:50:35;;;;;;;2.08;1.10;;;;;;;30.65;23.34;98888.53;5039110;28;20047;-82
2021/09/05 06:53:01;;;;;;;1.55;0.80;;;;;;;30.89;23.15;98893.81;5065567;28;20035;-82
2021/09/05 06:55:27;;;;;;;2.60;0.90;;;;;;;30.49;22.25;98899.25;5046761;28;20080;-81
2021/09/05 06:57:53;;;;;;;0.73;0.70;;;;;;;30.00;21.53;98901.72;5048181;28;20031;-81
2021/09/05 07:00:20;;;;;;;1.30;0.80;;;;;;;30.16;22.22;98900.78;5065624;28;20416;-81
2021/09/05 07:02:46;;;;;;;1.42;0.88;;;;;;;29.85;21.81;98904.22;5068571;28;20028;-82
2021/09/05 07:05:12;;;;;;;1.00;0.60;;;;;;;29.68;23.37;98905.56;5066586;28;20119;-82
2021/09/05 07:07:38;;;;;;;1.15;0.70;;;;;;;29.63;23.61;98903.31;5067908;28;20074;-82
2021/09/05 07:10:05;;;;;;;1.27;0.80;;;;;;;28.10;23.32;98916.47;5068082;28;20036;-82
2021/09/05 07:12:31;;;;;;;1.55;0.70;;;;;;;28.85;23.92;98912.50;5064231;28;20110;-82
2021/09/05 07:14:57;;;;;;;0.98;0.70;;;;;;;27.36;23.95;98921.81;5069964;28;20038;-82
2021/09/05 07:17:23;;;;;;;2.92;0.70;;;;;;;26.89;24.91;98923.19;5071673;28;20396;-81
2021/09/05 07:19:49;;;;;;;0.90;0.63;;;;;;;28.31;23.58;98929.28;5069259;28;20051;-80
2021/09/05 07:22:15;;;;;;;1.88;0.70;;;;;;;29.10;21.88;98923.91;5065060;28;20036;-80
2021/09/05 07:24:41;;;;;;;1.48;0.68;;;;;;;30.47;21.27;98928.06;5070298;28;20043;-80
2021/09/05 07:27:07;;;;;;;0.75;0.60;;;;;;;30.49;21.27;98934.06;5070976;28;20115;-80
2021/09/05 07:29:33;;;;;;;1.48;0.80;;;;;;;30.10;21.51;98934.56;5071202;28;20028;-80
2021/09/05 07:31:59;;;;;;;1.15;0.60;;;;;;;28.71;23.39;98937.09;5053564;28;20051;-80
2021/09/05 07:34:25;;;;;;;1.00;0.50;;;;;;;29.79;22.16;98930.72;5072003;28;20522;-80
2021/09/05 07:36:51;;;;;;;0.50;0.47;;;;;;;28.86;22.52;98942.38;5071475;28;20033;-80
2021/09/05 07:39:18;;;;;;;1.10;0.60;;;;;;;28.51;22.71;98933.59;5072256;28;20033;-80
2021/09/05 07:41:44;;;;;;;1.33;0.80;;;;;;;26.35;23.91;98947.16;5070060;28;20045;-80
2021/09/05 07:44:10;;;;;;;2.05;0.70;;;;;;;26.16;25.74;98957.13;5065960;28;20036;-80
2021/09/05 07:46:36;;;;;;;0.98;0.70;;;;;;;26.48;24.37;98954.56;5067117;28;20033;-81
2021/09/05 07:49:02;;;;;;;0.80;0.52;;;;;;;26.92;23.19;98958.97;5069152;28;20044;-81
2021/09/05 07:51:28;;;;;;;1.65;0.70;;;;;;;26.53;24.00;98964.53;5064636;28;20037;-80
2021/09/05 07:53:55;;;;;;;2.28;0.65;;;;;;;28.48;22.38;98959.09;5070604;28;20035;-81
2021/09/05 07:56:21;;;;;;;0.55;0.40;;;;;;;29.34;21.73;98959.16;5070347;28;20430;-81
2021/09/05 07:58:48;;;;;;;2.85;0.65;;;;;;;27.75;22.33;98962.50;5066924;28;20115;-81
2021/09/05 08:01:15;;;;;;;1.23;0.50;;;;;;;28.88;22.87;98963.28;5063896;28;20391;-81
2021/09/05 08:03:41;;;;;;;0.98;0.70;;;;;;;29.25;22.60;98971.16;5070995;28;20028;-82
2021/09/05 08:06:08;;;;;;;2.22;0.50;;;;;;;29.41;21.90;98971.06;5070468;28;20024;-82
2021/09/05 08:08:37;;;;;;;1.15;0.60;;;;;;;29.70;20.68;98970.22;5071853;28;20032;-80
2021/09/05 08:11:07;;;;;;;0.98;0.50;;;;;;;27.16;22.01;98991.53;5070378;28;20075;-80
2021/09/05 08:13:33;;;;;;;1.65;0.60;;;;;;;28.16;22.59;98981.69;5063832;28;20040;-80
2021/09/05 08:16:03;;;;;;;0.65;0.50;;;;;;;27.74;22.33;98984.28;5066437;28;20067;-80
2021/09/05 08:18:31;;;;;;;0.75;0.50;;;;;;;28.53;22.18;98984.78;5068921;28;20039;-80
2021/09/05 08:20:58;;;;;;;1.50;0.73;;;;;;;26.64;23.20;98991.28;5065825;28;20056;-80
2021/09/05 08:23:24;;;;;;;1.42;0.77;;;;;;;26.34;24.25;98987.78;5068556;28;20037;-80
2021/09/05 08:25:51;;;;;;;1.40;0.52;;;;;;;28.08;22.36;98981.88;5068612;28;20072;-80
2021/09/05 08:28:17;;;;;;;0.75;0.57;;;;;;;28.39;21.50;98993.63;5071115;28;20048;-80
2021/09/05 08:30:43;;;;;;;0.80;0.70;;;;;;;27.53;23.63;98986.75;5071357;28;20029;-79
2021/09/05 08:33:10;;;;;;;0.88;0.50;;;;;;;28.13;22.04;98985.41;5071135;28;20388;-80
2021/09/05 08:35:37;;;;;;;0.95;0.60;;;;;;;28.29;22.61;98991.06;5076013;28;20044;-80
2021/09/05 08:38:03;;;;;;;0.82;0.65;;;;;;;28.83;22.52;98986.44;5068585;28;20032;-80
2021/09/05 08:40:30;;;;;;;0.43;0.40;;;;;;;28.20;23.09;98993.69;5068753;28;20037;-80
2021/09/05 08:42:56;;;;;;;0.80;0.77;;;;;;;26.87;24.13;98998.94;5063870;28;20047;-80
2021/09/05 08:45:22;;;;;;;0.90;0.55;;;;;;;28.49;23.18;98994.59;5066887;28;20032;-80
2021/09/05 08:47:48;;;;;;;1.58;0.70;;;;;;;27.86;23.15;99006.16;5068592;28;20143;-79
2021/09/05 08:50:15;;;;;;;1.75;0.68;;;;;;;27.20;23.89;98997.88;5070971;28;20380;-81
2021/09/05 08:52:41;;;;;;;0.68;0.68;;;;;;;27.19;24.87;99003.97;5072102;28;20039;-80
2021/09/05 08:55:08;;;;;;;1.38;0.82;;;;;;;27.94;23.10;98992.66;5051366;28;20033;-79
2021/09/05 08:57:34;;;;;;;1.40;0.75;;;;;;;29.47;21.90;98993.16;5069163;28;20027;-78
2021/09/05 09:00:00;;;;;;;1.17;0.63;;;;;;;31.11;21.31;98993.91;5067048;28;20089;-78
2021/09/05 09:02:43;;;;;;;0.95;0.70;;;;;;;29.35;22.80;98998.34;5066408;28;20068;-78
2021/09/05 09:05:11;;;;;;;1.42;0.93;;;;;;;28.62;23.37;98999.13;5070639;28;20388;-78
2021/09/05 09:07:45;;;;;;;1.20;0.82;;;;;;;28.27;22.34;99002.81;5061522;28;20055;-77
2021/09/05 09:10:11;;;;;;;2.17;0.85;;;;;;;27.98;23.65;99005.47;5059297;28;20125;-78
2021/09/05 09:12:49;;;;;;;1.08;0.80;;;;;;;28.22;23.05;99000.50;5063620;28;20040;-77
2021/09/05 09:15:23;;;;;;;1.33;0.57;;;;;;;29.42;22.42;98997.34;5067034;28;20025;-77
2021/09/05 09:17:51;;;;;;;1.38;0.50;;;;;;;28.29;22.97;99005.97;5065089;28;20190;-78
2021/09/05 09:20:31;;;;;;;0.77;0.63;;;;;;;29.72;22.31;99001.69;5061717;28;20082;-78
2021/09/05 09:23:17;;;;;;;1.80;0.60;;;;;;;29.92;19.67;99008.00;5065221;28;20029;-80
2021/09/05 09:26:05;;;;;;;1.23;0.50;;;;;;;29.28;21.11;99004.22;5048009;28;20286;-81
2021/09/05 09:28:44;;;;;;;0.63;0.50;;;;;;;29.18;20.58;99013.78;5056770;28;20032;-79
2021/09/05 09:31:24;;;;;;;0.80;0.50;;;;;;;30.42;21.77;99010.84;5063488;28;20067;-80
2021/09/05 09:33:53;;;;;;;1.70;0.50;;;;;;;30.34;20.20;99011.53;5067094;28;20062;-78
2021/09/05 09:36:22;;;;;;;0.30;0.30;;;;;;;30.78;19.68;99010.44;5062682;28;20047;-78
2021/09/05 09:38:59;;;;;;;0.32;0.28;;;;;;;30.17;21.30;99012.88;5065630;28;20078;-78
2021/09/05 09:41:30;;;;;;;1.95;0.70;;;;;;;28.28;21.67;99018.53;5044000;28;20036;-78
2021/09/05 09:44:01;;;;;;;1.05;0.47;;;;;;;27.71;22.08;99013.34;5068948;28;20181;-81
2021/09/05 09:46:33;;;;;;;0.95;0.40;;;;;;;28.77;22.83;99016.50;5068035;28;20028;-78
2021/09/05 09:49:05;;;;;;;1.27;0.20;;;;;;;29.48;20.15;99020.22;5052694;28;20059;-79
2021/09/05 09:51:31;;;;;;;0.57;0.40;;;;;;;27.35;21.20;99024.56;5071443;28;20040;-78
2021/09/05 09:53:58;;;;;;;0.57;0.40;;;;;;;28.16;22.10;99010.75;5070207;28;20033;-78
2021/09/05 09:56:25;;;;;;;0.85;0.40;;;;;;;26.92;20.79;99023.81;5068707;28;20032;-78
2021/09/05 09:58:54;;;;;;;0.45;0.30;;;;;;;27.15;22.11;99020.13;5069094;28;20042;-78
2021/09/05 10:01:23;;;;;;;0.47;0.30;;;;;;;26.82;21.71;99023.97;5072947;28;20099;-79
2021/09/05 10:03:51;;;;;;;2.50;0.32;;;;;;;27.61;21.74;99008.72;5063629;28;20037;-80
2021/09/05 10:06:18;;;;;;;0.52;0.40;;;;;;;27.65;21.04;99003.81;5065498;28;20045;-80
2021/09/05 10:08:45;;;;;;;0.40;0.30;;;;;;;27.88;20.82;99017.03;5068927;28;20041;-79
2021/09/05 10:11:20;;;;;;;2.03;0.30;;;;;;;28.83;20.89;99011.88;5067403;28;20033;-78
2021/09/05 10:13:48;;;;;;;0.98;0.40;;;;;;;29.77;20.36;99009.66;5068821;28;20032;-78
2021/09/05 10:16:14;;;;;;;0.77;0.40;;;;;;;29.78;18.96;99016.94;5068200;28;20036;-79
2021/09/05 10:18:51;;;;;;;0.73;0.40;;;;;;;30.04;19.35;99010.81;5045491;28;20346;-78
2021/09/05 10:21:19;;;;;;;0.73;0.40;;;;;;;30.64;18.63;99013.75;5064839;28;20532;-78
2021/09/05 10:23:53;;;;;;;1.10;0.30;;;;;;;29.46;19.90;99017.84;5071873;28;20468;-79
2021/09/05 10:26:20;;;;;;;0.40;0.40;;;;;;;29.68;19.58;99006.69;5068245;28;20047;-79
2021/09/05 10:28:54;;;;;;;0.20;0.20;;;;;;;28.02;20.87;99008.25;5070773;28;20032;-80
2021/09/05 10:31:37;;;;;;;1.40;0.50;;;;;;;28.40;20.24;99008.56;5071957;28;20434;-80
2021/09/05 10:34:03;;;;;;;1.30;0.63;;;;;;;29.14;18.98;99006.59;5051433;28;20067;-81
2021/09/05 10:36:43;;;;;;;0.43;0.40;;;;;;;28.14;19.65;99006.75;5072564;28;20036;-81
2021/09/05 10:39:10;;;;;;;2.08;0.40;;;;;;;27.04;21.61;99006.25;5071570;28;20047;-78
2021/09/05 10:41:51;;;;;;;0.82;0.47;;;;;;;27.42;21.33;99006.75;5073191;28;20060;-78
2021/09/05 10:44:18;;;;;;;0.68;0.50;;;;;;;28.91;20.47;99004.81;5070540;28;20064;-78
2021/09/05 10:46:51;;;;;;;0.32;0.30;;;;;;;30.88;18.81;99009.28;5071447;28;20101;-77
2021/09/05 10:49:36;;;;;;;0.22;0.20;;;;;;;31.26;18.46;99012.78;5071111;28;20579;-79
2021/09/05 10:52:02;;;;;;;2.55;0.55;;;;;;;30.47;18.69;99015.13;5052638;28;20037;-78
2021/09/05 10:54:28;;;;;;;0.98;0.40;;;;;;;29.50;19.29;99003.59;5068938;28;20064;-79
2021/09/05 10:56:59;;;;;;;0.80;0.50;;;;;;;29.76;21.76;99010.91;5069708;28;20067;-79
2021/09/05 10:59:31;;;;;;;0.60;0.50;;;;;;;29.96;19.63;99012.31;5069560;28;20396;-80
2021/09/05 11:02:00;;;;;;;0.98;0.40;;;;;;;29.47;20.72;99015.81;5071693;28;20064;-79
2021/09/05 11:04:46;;;;;;;0.88;0.32;;;;;;;31.52;18.25;99007.78;5064238;28;20361;-79
2021/09/05 11:07:30;;;;;;;1.70;0.70;;;;;;;29.25;19.91;99013.59;5072915;28;20039;-79
2021/09/05 11:09:57;;;;;;;0.57;0.40;;;;;;;29.19;20.55;99023.06;5071514;28;20108;-80
2021/09/05 11:12:37;;;;;;;0.75;0.40;;;;;;;27.48;21.21;99010.63;5072495;28;20500;-79
2021/09/05 11:15:15;;;;;;;0.50;0.30;;;;;;;27.75;20.55;99002.78;5070647;28;20040;-79
2021/09/05 11:17:41;;;;;;;0.70;0.50;;;;;;;28.51;22.00;99011.91;5065672;28;20047;-78
2021/09/05 11:20:12;;;;;;;1.05;0.38;;;;;;;29.11;20.11;99010.31;5068124;28;20789;-79
2021/09/05 11:22:45;;;;;;;0.93;0.40;;;;;;;28.47;20.47;99011.19;5063174;28;20048;-79
2021/09/05 11:25:16;;;;;;;0.30;0.30;;;;;;;27.05;22.87;99015.53;5065119;28;20028;-79
2021/09/05 11:27:58;;;;;;;0.60;0.40;;;;;;;26.60;21.67;99015.91;5067968;28;20029;-78
2021/09/05 11:30:30;;;;;;;0.40;0.32;;;;;;;27.54;21.97;99010.94;5066953;28;20056;-77
2021/09/05 11:33:05;;;;;;;0.45;0.30;;;;;;;27.26;20.40;99006.63;5070020;28;20113;-78
2021/09/05 11:35:39;;;;;;;1.13;0.30;;;;;;;26.65;20.89;99011.81;5049023;28;20037;-78
2021/09/05 11:38:05;;;;;;;0.30;0.30;;;;;;;26.69;21.05;99009.72;5068543;28;20128;-77